createdAt,value
2019-02-22T00:01:39.316Z,7.20
2019-02-22T00:04:10.243Z,7.20
2019-02-22T00:06:43.479Z,7.20
2019-02-22T00:09:13.277Z,7.30
2019-02-22T00:11:43.713Z,7.40
2019-02-22T00:14:13.799Z,7.30
2019-02-22T00:16:43.940Z,7.30
2019-02-22T00:19:15.288Z,7.30
2019-02-22T00:21:45.365Z,7.40
2019-02-22T00:24:15.474Z,7.40
2019-02-22T00:26:45.545Z,7.30
2019-02-22T00:29:15.580Z,7.30
2019-02-22T00:31:45.659Z,7.20
2019-02-22T00:34:17.228Z,7.20
2019-02-22T00:36:47.431Z,7.20
2019-02-22T00:39:17.620Z,7.10
2019-02-22T00:41:50.688Z,7.10
2019-02-22T00:44:22.306Z,7.10
2019-02-22T00:46:52.422Z,7.00
2019-02-22T00:49:22.404Z,6.90
2019-02-22T00:51:52.491Z,6.80
2019-02-22T00:54:22.548Z,6.80
2019-02-22T00:56:54.328Z,6.70
2019-02-22T00:59:24.318Z,6.70
2019-02-22T01:01:54.389Z,7.00
2019-02-22T01:04:24.394Z,7.00
2019-02-22T01:06:57.519Z,7.00
2019-02-22T01:09:27.528Z,7.00
2019-02-22T01:11:57.530Z,7.10
2019-02-22T01:14:29.367Z,7.10
2019-02-22T01:16:59.474Z,7.10
2019-02-22T01:19:32.593Z,7.00
2019-02-22T01:22:02.676Z,7.00
2019-02-22T01:24:32.695Z,7.00
2019-02-22T01:27:02.824Z,7.10
2019-02-22T01:29:32.826Z,7.10
2019-02-22T01:32:06.864Z,7.00
2019-02-22T01:34:38.231Z,7.10
2019-02-22T01:37:08.284Z,7.00
2019-02-22T01:39:39.393Z,6.90
2019-02-22T01:42:13.442Z,6.90
2019-02-22T01:44:44.781Z,6.80
2019-02-22T01:47:15.971Z,6.80
2019-02-22T01:49:46.956Z,6.70
2019-02-22T01:52:22.748Z,6.70
2019-02-22T01:54:52.510Z,6.60
2019-02-22T01:57:22.593Z,6.70
2019-02-22T01:59:52.666Z,6.70
2019-02-22T02:02:24.221Z,6.60
2019-02-22T02:04:54.383Z,6.70
2019-02-22T02:07:27.235Z,6.70
2019-02-22T02:09:57.331Z,6.70
2019-02-22T02:12:28.712Z,6.70
2019-02-22T02:15:00.505Z,6.60
2019-02-22T02:17:32.125Z,6.60
2019-02-22T02:20:09.242Z,6.60
2019-02-22T02:22:40.083Z,6.50
2019-02-22T02:25:13.423Z,6.40
2019-02-22T02:27:47.500Z,6.50
2019-02-22T02:30:17.333Z,6.50
2019-02-22T02:32:47.393Z,6.50
2019-02-22T02:35:18.941Z,6.50
2019-02-22T02:37:49.006Z,6.50
2019-02-22T02:40:23.452Z,6.60
2019-02-22T02:42:54.650Z,6.60
2019-02-22T02:45:24.648Z,6.60
2019-02-22T02:47:56.628Z,6.60
2019-02-22T02:50:27.853Z,6.60
2019-02-22T02:52:57.925Z,6.60
2019-02-22T02:55:30.273Z,6.60
2019-02-22T02:58:00.427Z,6.60
2019-02-22T03:00:32.320Z,6.40
2019-02-22T03:03:08.059Z,6.30
2019-02-22T03:05:47.828Z,6.30
2019-02-22T03:08:17.969Z,6.30
2019-02-22T03:10:49.665Z,6.40
2019-02-22T03:13:19.804Z,6.30
2019-02-22T03:15:52.672Z,6.30
2019-02-22T03:18:22.754Z,6.20
2019-02-22T03:20:54.404Z,6.20
2019-02-22T03:23:25.510Z,6.20
2019-02-22T03:25:56.816Z,6.20
2019-02-22T03:28:29.813Z,6.20
2019-02-22T03:31:01.860Z,6.30
2019-02-22T03:33:33.537Z,6.30
2019-02-22T03:36:03.609Z,6.40
2019-02-22T03:38:35.472Z,6.30
2019-02-22T03:41:05.656Z,6.20
2019-02-22T03:43:35.807Z,6.20
2019-02-22T03:46:09.049Z,6.20
2019-02-22T03:48:39.125Z,6.10
2019-02-22T03:51:09.194Z,6.10
2019-02-22T03:53:46.610Z,6.10
2019-02-22T03:56:19.483Z,6.10
2019-02-22T03:58:49.483Z,6.10
2019-02-22T04:01:20.776Z,6.10
2019-02-22T04:03:50.912Z,6.10
2019-02-22T04:06:22.705Z,6.10
2019-02-22T04:08:52.775Z,6.10
2019-02-22T04:11:22.863Z,6.10
2019-02-22T04:13:52.960Z,6.10
2019-02-22T04:16:23.215Z,6.10
2019-02-22T04:18:54.433Z,6.20
2019-02-22T04:21:24.511Z,6.10
2019-02-22T04:23:55.789Z,6.10
2019-02-22T04:26:26.842Z,6.20
2019-02-22T04:28:58.608Z,6.10
2019-02-22T04:31:33.915Z,6.10
2019-02-22T04:34:00.475Z,6.20
2019-02-22T04:36:32.496Z,6.30
2019-02-22T04:39:04.676Z,6.40
2019-02-22T04:41:36.501Z,6.30
2019-02-22T04:44:09.857Z,6.30
2019-02-22T04:46:43.006Z,6.30
2019-02-22T04:49:13.271Z,6.30
2019-02-22T04:51:45.224Z,6.30
2019-02-22T04:54:16.942Z,6.50
2019-02-22T04:56:47.011Z,6.40
2019-02-22T04:59:18.566Z,6.50
2019-02-22T05:01:51.670Z,6.50
2019-02-22T05:04:24.189Z,6.50
2019-02-22T05:06:55.728Z,6.50
2019-02-22T05:09:26.964Z,6.60
2019-02-22T05:11:57.088Z,6.50
2019-02-22T05:14:27.106Z,6.50
2019-02-22T05:16:58.275Z,6.50
2019-02-22T05:19:31.462Z,6.60
2019-02-22T05:22:01.450Z,6.60
2019-02-22T05:24:32.749Z,6.60
2019-02-22T05:27:04.806Z,6.70
2019-02-22T05:29:34.922Z,6.70
2019-02-22T05:32:05.762Z,6.70
2019-02-22T05:34:35.905Z,6.70
2019-02-22T05:37:07.116Z,6.70
2019-02-22T05:39:38.298Z,6.70
2019-02-22T05:42:08.368Z,6.70
2019-02-22T05:44:40.209Z,6.60
2019-02-22T05:47:14.206Z,6.60
2019-02-22T05:49:44.296Z,6.60
2019-02-22T05:52:14.455Z,6.70
2019-02-22T05:54:45.752Z,6.70
2019-02-22T05:57:15.818Z,6.70
2019-02-22T05:59:47.689Z,6.70
2019-02-22T06:02:19.367Z,6.70
2019-02-22T06:04:49.526Z,6.60
2019-02-22T06:07:20.130Z,6.70
2019-02-22T06:09:50.128Z,6.60
2019-02-22T06:12:20.257Z,6.60
2019-02-22T06:14:50.278Z,6.60
2019-02-22T06:17:21.353Z,6.60
2019-02-22T06:19:51.334Z,6.60
2019-02-22T06:22:29.682Z,6.60
2019-02-22T06:24:57.536Z,6.70
2019-02-22T06:27:28.570Z,6.70
2019-02-22T06:30:03.392Z,6.80
2019-02-22T06:32:34.817Z,6.90
2019-02-22T06:35:05.086Z,6.90
2019-02-22T06:37:35.223Z,7.00
2019-02-22T06:40:05.934Z,7.00
2019-02-22T06:42:45.294Z,6.90
2019-02-22T06:45:17.045Z,6.80
2019-02-22T06:47:48.101Z,6.80
2019-02-22T06:50:19.927Z,6.70
2019-02-22T06:52:52.705Z,6.70
2019-02-22T06:55:23.640Z,6.70
2019-02-22T06:57:53.693Z,6.70
2019-02-22T07:00:24.881Z,6.70
2019-02-22T07:02:56.340Z,6.80
2019-02-22T07:05:27.809Z,6.90
2019-02-22T07:08:05.856Z,6.90
2019-02-22T07:10:54.921Z,6.90
2019-02-22T07:13:26.241Z,6.90
2019-02-22T07:15:59.306Z,7.00
2019-02-22T07:18:35.001Z,7.00
2019-02-22T07:21:05.125Z,7.00
2019-02-22T07:23:36.163Z,6.90
2019-02-22T07:26:09.072Z,6.90
2019-02-22T07:28:40.905Z,7.00
2019-02-22T07:31:11.004Z,7.00
2019-02-22T07:33:41.005Z,7.00
2019-02-22T07:36:11.195Z,6.90
2019-02-22T07:38:41.344Z,7.00
2019-02-22T07:41:12.628Z,7.10
2019-02-22T07:43:44.392Z,7.20
2019-02-22T07:46:14.481Z,7.20
2019-02-22T07:48:47.007Z,7.20
2019-02-22T07:51:18.732Z,7.20
2019-02-22T07:53:48.059Z,7.30
2019-02-22T07:56:19.366Z,7.40
2019-02-22T07:58:51.397Z,7.40
2019-02-22T08:01:26.906Z,7.50
2019-02-22T08:03:58.932Z,7.50
2019-02-22T08:06:29.028Z,7.50
2019-02-22T08:09:00.776Z,7.50
2019-02-22T08:11:38.134Z,7.50
2019-02-22T08:14:12.398Z,7.60
2019-02-22T08:16:42.548Z,7.70
2019-02-22T08:19:16.165Z,7.70
2019-02-22T08:21:47.082Z,7.70
2019-02-22T08:24:17.217Z,7.70
2019-02-22T08:26:48.928Z,7.70
2019-02-22T08:29:18.937Z,7.60
2019-02-22T08:31:50.722Z,7.70
2019-02-22T08:34:20.798Z,7.70
2019-02-22T08:36:55.530Z,7.80
2019-02-22T08:39:25.688Z,7.90
2019-02-22T08:41:57.465Z,7.90
2019-02-22T08:44:28.337Z,7.90
2019-02-22T08:46:58.438Z,7.90
2019-02-22T08:49:30.036Z,7.70
2019-02-22T08:52:04.214Z,7.70
2019-02-22T08:54:34.327Z,7.80
2019-02-22T08:57:04.413Z,8.00
2019-02-22T08:59:34.502Z,8.10
2019-02-22T09:02:04.592Z,8.10
2019-02-22T09:04:34.770Z,8.10
2019-02-22T09:07:04.791Z,8.20
2019-02-22T09:09:34.880Z,8.30
2019-02-22T09:12:04.947Z,8.40
2019-02-22T09:14:38.207Z,8.50
2019-02-22T09:17:08.320Z,8.50
2019-02-22T09:19:38.388Z,8.50
2019-02-22T09:22:08.506Z,8.50
2019-02-22T09:24:38.577Z,8.70
2019-02-22T09:27:08.669Z,8.80
2019-02-22T09:29:38.747Z,9.00
2019-02-22T09:32:08.861Z,9.10
2019-02-22T09:34:38.939Z,9.20
2019-02-22T09:37:09.018Z,9.30
2019-02-22T09:39:39.177Z,9.30
2019-02-22T09:42:09.258Z,9.30
2019-02-22T09:44:39.264Z,9.00
2019-02-22T09:47:09.375Z,8.90
2019-02-22T09:49:39.477Z,8.90
2019-02-22T09:52:09.637Z,8.90
2019-02-22T09:54:39.705Z,8.90
2019-02-22T09:57:09.812Z,8.80
2019-02-22T09:59:39.934Z,8.90
2019-02-22T10:02:10.044Z,9.00
2019-02-22T10:04:40.142Z,9.00
2019-02-22T10:07:10.324Z,8.80
2019-02-22T10:09:40.450Z,8.80
2019-02-22T10:12:10.676Z,8.90
2019-02-22T10:14:40.850Z,8.70
2019-02-22T10:17:10.935Z,8.80
2019-02-22T10:19:41.044Z,8.80
2019-02-22T10:22:11.225Z,8.70
2019-02-22T10:24:41.356Z,8.80
2019-02-22T10:27:12.236Z,8.80
2019-02-22T10:29:42.438Z,8.80
2019-02-22T10:32:12.478Z,8.80
2019-02-22T10:34:42.580Z,8.90
2019-02-22T10:37:12.713Z,9.00
2019-02-22T10:39:42.804Z,9.00
2019-02-22T10:42:12.878Z,9.10
2019-02-22T10:44:42.960Z,9.10
2019-02-22T10:47:13.056Z,9.30
2019-02-22T10:49:43.157Z,9.30
2019-02-22T10:52:13.239Z,9.20
2019-02-22T10:54:43.336Z,9.30
2019-02-22T10:57:13.484Z,9.20
2019-02-22T10:59:43.555Z,9.20
2019-02-22T11:02:13.655Z,9.00
2019-02-22T11:04:43.800Z,9.00
2019-02-22T11:07:13.946Z,8.80
2019-02-22T11:09:44.116Z,8.70
2019-02-22T11:12:14.195Z,8.70
2019-02-22T11:14:45.921Z,8.80
2019-02-22T11:17:16.159Z,9.00
2019-02-22T11:19:46.271Z,9.00
2019-02-22T11:22:16.365Z,9.30
2019-02-22T11:24:46.455Z,9.30
2019-02-22T11:27:16.603Z,9.60
2019-02-22T11:29:49.186Z,9.90
2019-02-22T11:32:18.411Z,10.00
2019-02-22T11:34:48.508Z,10.10
2019-02-22T11:37:18.618Z,10.10
2019-02-22T11:39:48.640Z,10.10
2019-02-22T11:42:20.539Z,10.00
2019-02-22T11:44:50.596Z,9.90
2019-02-22T11:47:20.700Z,9.90
2019-02-22T11:49:50.859Z,9.80
2019-02-22T11:52:20.889Z,9.80
2019-02-22T11:54:50.983Z,9.40
2019-02-22T11:57:22.639Z,9.30
2019-02-22T11:59:53.987Z,9.20
2019-02-22T12:02:25.717Z,9.20
2019-02-22T12:04:57.093Z,9.40
2019-02-22T12:07:27.173Z,9.50
2019-02-22T12:09:57.267Z,9.60
2019-02-22T12:12:28.825Z,9.60
2019-02-22T12:15:00.521Z,9.60
2019-02-22T12:17:32.312Z,9.60
2019-02-22T12:20:02.424Z,9.70
2019-02-22T12:22:33.768Z,9.80
2019-02-22T12:25:05.679Z,9.80
2019-02-22T12:27:35.856Z,9.70
2019-02-22T12:30:12.212Z,9.60
2019-02-22T12:32:42.301Z,9.80
2019-02-22T12:35:12.472Z,9.90
2019-02-22T12:37:42.552Z,10.10
2019-02-22T12:40:15.238Z,10.10
2019-02-22T12:42:48.602Z,10.10
2019-02-22T12:45:18.771Z,10.40
2019-02-22T12:47:48.884Z,10.60
2019-02-22T12:50:18.992Z,10.90
2019-02-22T12:52:50.877Z,11.40
2019-02-22T12:55:23.964Z,11.60
2019-02-22T12:57:54.144Z,11.80
2019-02-22T13:00:24.259Z,11.90
2019-02-22T13:03:01.997Z,11.90
2019-02-22T13:05:26.567Z,12.30
2019-02-22T13:07:56.728Z,12.40
2019-02-22T13:10:26.816Z,12.20
2019-02-22T13:12:56.963Z,12.10
2019-02-22T13:15:27.064Z,11.90
2019-02-22T13:17:57.169Z,11.60
2019-02-22T13:20:30.365Z,11.40
2019-02-22T13:23:02.930Z,11.30
2019-02-22T13:25:32.312Z,11.10
2019-02-22T13:28:02.458Z,11.10
2019-02-22T13:30:32.617Z,11.00
2019-02-22T13:33:02.757Z,10.80
2019-02-22T13:35:32.929Z,10.50
2019-02-22T13:38:02.972Z,10.50
2019-02-22T13:40:33.108Z,10.60
2019-02-22T13:43:05.300Z,10.80
2019-02-22T13:45:35.013Z,11.00
2019-02-22T13:48:05.246Z,11.20
2019-02-22T13:50:35.444Z,11.40
2019-02-22T13:53:05.636Z,11.40
2019-02-22T13:55:35.717Z,11.30
2019-02-22T13:58:05.858Z,11.20
2019-02-22T14:00:36.136Z,11.50
2019-02-22T14:03:06.418Z,11.60
2019-02-22T14:05:36.533Z,11.90
2019-02-22T14:08:06.707Z,12.40
2019-02-22T14:10:36.935Z,12.70
2019-02-22T14:13:10.530Z,12.50
2019-02-22T14:15:42.605Z,12.50
2019-02-22T14:18:13.545Z,12.40
2019-02-22T14:20:47.115Z,12.20
2019-02-22T14:23:20.983Z,12.40
2019-02-22T14:25:52.662Z,12.50
2019-02-22T14:28:22.829Z,12.60
2019-02-22T14:30:52.940Z,12.40
2019-02-22T14:33:26.324Z,12.10
2019-02-22T14:35:59.143Z,12.00
2019-02-22T14:38:30.246Z,11.90
2019-02-22T14:41:03.487Z,11.60
2019-02-22T14:43:35.986Z,11.30
2019-02-22T14:46:06.682Z,11.30
2019-02-22T14:48:38.036Z,11.10
2019-02-22T14:51:15.091Z,10.90
2019-02-22T14:53:46.417Z,10.70
2019-02-22T14:56:16.256Z,10.40
2019-02-22T14:58:47.598Z,10.10
2019-02-22T15:01:17.720Z,10.10
2019-02-22T15:03:49.060Z,10.20
2019-02-22T15:06:19.206Z,10.30
2019-02-22T15:08:50.320Z,10.00
2019-02-22T15:11:20.613Z,9.50
2019-02-22T15:13:50.688Z,8.90
2019-02-22T15:16:32.164Z,8.70
2019-02-22T15:19:02.228Z,8.50
2019-02-22T15:21:34.521Z,8.20
2019-02-22T15:24:10.423Z,8.00
2019-02-22T15:26:41.300Z,8.00
2019-02-22T15:29:13.264Z,8.10
2019-02-22T15:31:43.430Z,8.20
2019-02-22T15:34:13.553Z,8.30
2019-02-22T15:36:43.768Z,8.40
2019-02-22T15:39:21.197Z,8.30
2019-02-22T15:41:51.335Z,8.30
2019-02-22T15:44:24.307Z,8.40
2019-02-22T15:46:57.496Z,8.40
2019-02-22T15:49:28.790Z,8.40
2019-02-22T15:51:58.899Z,8.40
2019-02-22T15:54:33.509Z,8.50
2019-02-22T15:57:03.655Z,8.50
2019-02-22T15:59:34.789Z,8.50
2019-02-22T16:02:05.428Z,8.40
2019-02-22T16:04:41.996Z,8.30
2019-02-22T16:07:12.145Z,8.30
2019-02-22T16:09:42.269Z,8.30
2019-02-22T16:12:13.626Z,8.20
2019-02-22T16:14:45.059Z,8.30
2019-02-22T16:17:15.276Z,8.30
2019-02-22T16:19:47.139Z,8.10
2019-02-22T16:22:17.426Z,8.00
2019-02-22T16:24:47.758Z,7.90
2019-02-22T16:27:17.892Z,7.80
2019-02-22T16:29:49.313Z,7.80
2019-02-22T16:32:19.459Z,7.70
2019-02-22T16:34:49.685Z,7.70
2019-02-22T16:37:21.619Z,7.60
2019-02-22T16:39:54.165Z,7.60
2019-02-22T16:42:23.558Z,7.50
2019-02-22T16:44:53.843Z,7.40
2019-02-22T16:47:26.435Z,7.40
2019-02-22T16:49:55.871Z,7.40
2019-02-22T16:52:27.951Z,7.40
2019-02-22T16:54:57.843Z,7.30
2019-02-22T16:57:28.028Z,7.30
2019-02-22T16:59:58.165Z,7.30
2019-02-22T17:02:32.721Z,7.30
2019-02-22T17:05:02.929Z,7.40
2019-02-22T17:07:36.897Z,7.40
2019-02-22T17:10:08.662Z,7.40
2019-02-22T17:12:38.816Z,7.50
2019-02-22T17:15:10.738Z,7.40
2019-02-22T17:17:45.049Z,7.40
2019-02-22T17:20:15.537Z,7.30
2019-02-22T17:22:45.660Z,7.40
2019-02-22T17:25:16.221Z,7.30
2019-02-22T17:27:46.444Z,7.30
2019-02-22T17:30:16.635Z,7.30
2019-02-22T17:32:46.839Z,7.30
2019-02-22T17:35:17.058Z,7.40
2019-02-22T17:37:47.293Z,7.50
2019-02-22T17:40:17.446Z,7.50
2019-02-22T17:42:47.658Z,7.50
2019-02-22T17:45:22.206Z,7.50
2019-02-22T17:47:52.401Z,7.50
2019-02-22T17:50:28.041Z,7.60
2019-02-22T17:52:57.492Z,7.50
2019-02-22T17:55:27.686Z,7.50
2019-02-22T17:57:57.846Z,7.50
2019-02-22T18:00:29.759Z,7.50
2019-02-22T18:03:02.806Z,7.50
2019-02-22T18:05:33.586Z,7.50
2019-02-22T18:08:03.821Z,7.50
2019-02-22T18:10:34.056Z,7.50
2019-02-22T18:13:04.197Z,7.50
2019-02-22T18:15:34.417Z,7.50
2019-02-22T18:18:05.669Z,7.50
2019-02-22T18:20:35.832Z,7.50
2019-02-22T18:23:06.065Z,7.50
2019-02-22T18:25:36.295Z,7.50
2019-02-22T18:28:07.079Z,7.50
2019-02-22T18:30:37.285Z,7.40
2019-02-22T18:33:07.515Z,7.50
2019-02-22T18:35:37.787Z,7.50
2019-02-22T18:38:07.957Z,7.40
2019-02-22T18:40:38.598Z,7.40
2019-02-22T18:43:08.742Z,7.30
2019-02-22T18:45:39.322Z,7.30
2019-02-22T18:48:11.941Z,7.20
2019-02-22T18:50:42.676Z,7.10
2019-02-22T18:53:13.887Z,7.10
2019-02-22T18:55:50.252Z,7.10
2019-02-22T18:58:17.051Z,7.10
2019-02-22T19:00:51.168Z,7.10
2019-02-22T19:03:22.464Z,7.00
2019-02-22T19:05:54.652Z,6.90
2019-02-22T19:08:32.019Z,6.90
2019-02-22T19:10:56.628Z,6.90
2019-02-22T19:13:26.881Z,6.90
2019-02-22T19:15:57.525Z,6.90
2019-02-22T19:18:27.782Z,6.90
2019-02-22T19:20:59.134Z,6.90
2019-02-22T19:23:31.039Z,7.00
2019-02-22T19:26:02.788Z,6.90
2019-02-22T19:28:33.643Z,6.80
2019-02-22T19:31:05.742Z,6.80
2019-02-22T19:33:36.138Z,6.80
2019-02-22T19:36:08.693Z,6.70
2019-02-22T19:38:38.992Z,6.80
2019-02-22T19:41:09.429Z,6.70
2019-02-22T19:43:42.986Z,6.70
2019-02-22T19:46:15.489Z,6.60
2019-02-22T19:48:45.806Z,6.40
2019-02-22T19:51:16.441Z,6.40
2019-02-22T19:53:47.060Z,6.40
2019-02-22T19:56:17.667Z,6.40
2019-02-22T19:58:48.258Z,6.40
2019-02-22T20:01:18.650Z,6.50
2019-02-22T20:03:49.458Z,6.40
2019-02-22T20:06:20.013Z,6.30
2019-02-22T20:08:50.698Z,6.30
2019-02-22T20:11:21.092Z,6.20
2019-02-22T20:13:52.404Z,6.10
2019-02-22T20:16:22.667Z,5.90
2019-02-22T20:18:55.017Z,5.80
2019-02-22T20:21:26.824Z,5.70
2019-02-22T20:23:59.574Z,5.60
2019-02-22T20:26:31.872Z,5.40
2019-02-22T20:29:02.593Z,5.30
2019-02-22T20:31:34.379Z,5.30
2019-02-22T20:34:07.104Z,5.20
2019-02-22T20:36:37.842Z,5.20
2019-02-22T20:39:10.181Z,5.20
2019-02-22T20:41:41.735Z,5.20
2019-02-22T20:44:12.151Z,5.20
2019-02-22T20:46:43.666Z,5.00
2019-02-22T20:49:15.444Z,5.00
2019-02-22T20:51:46.362Z,4.80
2019-02-22T20:54:16.621Z,4.70
2019-02-22T20:56:46.930Z,4.50
2019-02-22T20:59:17.207Z,4.50
2019-02-22T21:01:47.446Z,4.50
2019-02-22T21:04:17.933Z,4.40
2019-02-22T21:06:49.437Z,4.50
2019-02-22T21:09:21.692Z,4.50
2019-02-22T21:11:53.732Z,4.60
2019-02-22T21:14:24.922Z,4.50
2019-02-22T21:16:56.637Z,4.40
2019-02-22T21:19:30.494Z,4.60
2019-02-22T21:22:04.116Z,4.50
2019-02-22T21:24:35.779Z,4.60
2019-02-22T21:27:06.023Z,4.40
2019-02-22T21:29:38.969Z,4.50
2019-02-22T21:32:09.172Z,4.40
2019-02-22T21:34:39.498Z,4.50
2019-02-22T21:37:09.795Z,4.50
2019-02-22T21:39:40.111Z,4.40
2019-02-22T21:42:19.860Z,4.40
2019-02-22T21:44:42.586Z,4.30
2019-02-22T21:47:12.804Z,4.20
2019-02-22T21:49:42.992Z,4.10
2019-02-22T21:52:16.420Z,4.00
2019-02-22T21:54:46.644Z,3.90
2019-02-22T21:57:22.547Z,3.80
2019-02-22T21:59:53.373Z,3.80
2019-02-22T22:02:22.798Z,3.80
2019-02-22T22:04:52.987Z,3.70
2019-02-22T22:07:23.229Z,3.50
2019-02-22T22:09:57.621Z,3.50
2019-02-22T22:12:29.924Z,3.40
2019-02-22T22:15:00.033Z,3.40
2019-02-22T22:17:30.220Z,3.30
2019-02-22T22:20:00.430Z,3.30
2019-02-22T22:22:30.715Z,3.30
2019-02-22T22:25:00.948Z,3.30
2019-02-22T22:27:32.260Z,3.30
2019-02-22T22:30:02.446Z,3.30
2019-02-22T22:32:36.948Z,3.20
2019-02-22T22:35:11.281Z,3.40
2019-02-22T22:37:42.684Z,3.30
2019-02-22T22:40:19.831Z,3.30
2019-02-22T22:42:51.581Z,3.30
2019-02-22T22:45:23.738Z,3.30
2019-02-22T22:47:53.662Z,3.30
2019-02-22T22:50:23.772Z,3.20
2019-02-22T22:52:54.022Z,3.30
2019-02-22T22:55:24.162Z,3.40
2019-02-22T22:57:54.289Z,3.40
2019-02-22T23:00:59.156Z,3.40
2019-02-22T23:03:30.520Z,3.30
2019-02-22T23:06:00.814Z,3.10
2019-02-22T23:08:32.545Z,3.00
2019-02-22T23:11:02.638Z,2.90
2019-02-22T23:13:36.167Z,2.80
2019-02-22T23:16:07.273Z,2.70
2019-02-22T23:18:37.371Z,2.70
2019-02-22T23:21:08.114Z,2.70
2019-02-22T23:23:38.252Z,2.70
2019-02-22T23:26:09.634Z,2.70
2019-02-22T23:28:39.799Z,2.70
2019-02-22T23:31:13.695Z,2.80
2019-02-22T23:33:43.790Z,2.80
2019-02-22T23:36:13.881Z,2.70
2019-02-22T23:38:43.999Z,2.70
2019-02-22T23:41:16.508Z,2.70
2019-02-22T23:43:48.697Z,2.60
2019-02-22T23:46:18.833Z,2.50
2019-02-22T23:48:48.930Z,2.40
2019-02-22T23:51:19.043Z,2.30
2019-02-22T23:53:49.231Z,2.30
2019-02-22T23:56:19.328Z,2.10
2019-02-22T23:58:53.227Z,2.00
